Search for airport 
image banner adimage banner adimage banner ad
image banner ad

10CN - St Helena Hospital

Located in St Helena, United States

ICAO - 10CN, IATA -

Data provided by Airmate  

General information

Coordinates: N38°32'36" W122°28'30"
Elevation is 581 feet MSL.
 
View others Airports in California

Operational data

Special qualification required
Current time UTC:
Current local time:
METAR: KSTS 231429Z 00000KT 1/4SM FG VV002 11/11 A2997 RMK AO2 T01110111
TAF: KSTS 231135Z 2312/2412 VRB03KT 1/2SM FG VV002 TEMPO 2315/2317 1SM BR BKN005 FM231700 VRB03KT P6SM FEW010 FM232100 27010KT P6SM SKC FM240200 16005KT P6SM SKC
View NOTAMs / SUP AIP / TFR affecting this airport [VIEW]
Communications frequencies: [VIEW]

Runways:

Airport contact information

Address: St Helena United States

Satellite view of 10CN